Time;durP1;ratioP1;P1;durP2;ratioP2;P2;SDS_P1;SDS_P2;PMS_P1;PMS_P2;Temp;Humidity;BMP_temperature;BMP_pressure;BME280_temperature;BME280_humidity;BME280_pressure;Samples;Min_cycle;Max_cycle;Signal;HPM_P1;HPM_P2
2021/07/21 00:00:47;;;;;;;5.47;4.87;;;21.30;99.90;;;;;;5048472;28;20482;-81
2021/07/21 00:03:15;;;;;;;6.43;5.10;;;21.30;99.90;;;;;;5051024;28;20446;-79
2021/07/21 00:05:43;;;;;;;11.10;6.37;;;21.30;99.90;;;;;;5050839;28;20480;-80
2021/07/21 00:08:11;;;;;;;6.50;5.23;;;21.20;99.90;;;;;;5051150;28;20538;-77
2021/07/21 00:10:40;;;;;;;5.10;4.13;;;21.20;99.90;;;;;;5051570;28;20471;-79
2021/07/21 00:13:28;;;;;;;7.80;5.23;;;21.20;99.90;;;;;;5052112;28;20965;-86
2021/07/21 00:16:07;;;;;;;5.40;4.30;;;21.20;99.90;;;;;;5033819;28;20450;-78
2021/07/21 00:18:45;;;;;;;6.20;4.77;;;21.10;99.90;;;;;;5050412;28;20451;-78
2021/07/21 00:21:14;;;;;;;5.20;3.53;;;21.10;99.90;;;;;;5047222;28;21035;-79
2021/07/21 00:23:43;;;;;;;9.50;6.17;;;21.10;99.90;;;;;;5033293;28;20979;-80
2021/07/21 00:26:11;;;;;;;5.70;4.23;;;21.10;99.90;;;;;;5049625;28;20485;-79
2021/07/21 00:28:41;;;;;;;7.37;4.43;;;21.10;99.90;;;;;;5051671;28;20502;-79
2021/07/21 00:31:10;;;;;;;7.20;4.97;;;21.10;99.90;;;;;;5033526;28;20529;-78
2021/07/21 00:33:39;;;;;;;6.63;4.57;;;21.00;99.90;;;;;;5050840;28;20446;-79
2021/07/21 00:36:07;;;;;;;6.47;4.30;;;21.00;99.90;;;;;;5054517;28;20535;-83
2021/07/21 00:38:35;;;;;;;6.70;5.43;;;21.00;99.90;;;;;;5051348;28;20446;-79
2021/07/21 00:41:03;;;;;;;5.67;4.97;;;20.90;99.90;;;;;;5051536;28;20475;-79
2021/07/21 00:43:31;;;;;;;6.83;4.87;;;20.90;99.90;;;;;;5050493;28;20513;-79
2021/07/21 00:46:01;;;;;;;6.20;5.60;;;20.90;99.90;;;;;;5035273;28;20530;-79
2021/07/21 00:48:29;;;;;;;6.10;4.70;;;20.90;99.90;;;;;;5043823;28;20459;-79
2021/07/21 00:50:59;;;;;;;5.63;4.47;;;20.80;99.90;;;;;;5051079;28;20483;-78
2021/07/21 00:53:28;;;;;;;5.50;4.20;;;20.80;99.90;;;;;;5051653;28;20436;-82
2021/07/21 00:55:56;;;;;;;6.17;4.20;;;20.80;99.90;;;;;;5050085;28;20452;-80
2021/07/21 00:58:24;;;;;;;6.20;4.60;;;20.80;99.90;;;;;;5050686;28;20513;-80
2021/07/21 01:00:55;;;;;;;6.37;4.80;;;20.80;99.90;;;;;;5044279;28;20888;-78
2021/07/21 01:03:25;;;;;;;7.20;4.10;;;20.80;99.90;;;;;;5050880;28;20508;-81
2021/07/21 01:05:53;;;;;;;5.17;4.40;;;20.80;99.90;;;;;;5031939;28;20488;-79
2021/07/21 01:08:23;;;;;;;5.57;4.50;;;20.70;99.90;;;;;;5032013;28;20459;-75
2021/07/21 01:10:56;;;;;;;6.83;4.80;;;20.70;99.90;;;;;;5050880;28;20460;-79
2021/07/21 01:13:29;;;;;;;6.57;4.90;;;20.70;99.90;;;;;;5033067;28;20789;-78
2021/07/21 01:16:04;;;;;;;5.33;3.77;;;20.70;99.90;;;;;;5045240;28;20444;-79
2021/07/21 01:18:39;;;;;;;5.70;4.73;;;20.70;99.90;;;;;;5050891;28;20439;-78
2021/07/21 01:21:34;;;;;;;10.70;4.83;;;20.60;99.90;;;;;;5049264;28;20529;-79
2021/07/21 01:24:13;;;;;;;6.50;4.00;;;20.60;99.90;;;;;;5032624;28;20452;-79
2021/07/21 01:26:47;;;;;;;5.90;5.13;;;20.60;99.90;;;;;;5050830;28;20447;-81
2021/07/21 01:29:21;;;;;;;6.10;4.80;;;20.60;99.90;;;;;;5050081;28;20443;-78
2021/07/21 01:31:51;;;;;;;6.50;4.67;;;20.60;99.90;;;;;;5048838;28;20513;-79
2021/07/21 01:34:22;;;;;;;5.37;4.43;;;20.50;99.90;;;;;;5050687;28;20456;-82
2021/07/21 01:36:52;;;;;;;8.50;5.13;;;20.50;99.90;;;;;;5050405;28;20440;-80
2021/07/21 01:39:32;;;;;;;6.30;4.47;;;20.40;99.90;;;;;;5050343;28;20502;-78
2021/07/21 01:42:04;;;;;;;6.87;4.90;;;20.40;99.90;;;;;;5031896;28;20443;-78
2021/07/21 01:44:40;;;;;;;6.10;3.97;;;20.40;99.90;;;;;;5040871;28;20447;-79
2021/07/21 01:47:10;;;;;;;5.90;4.73;;;20.40;99.90;;;;;;5036034;28;20525;-76
2021/07/21 01:49:40;;;;;;;6.57;4.57;;;20.40;99.90;;;;;;5052880;28;20570;-83
2021/07/21 01:52:11;;;;;;;9.30;5.30;;;20.40;99.90;;;;;;5028776;28;20497;-79
2021/07/21 01:54:41;;;;;;;5.60;4.23;;;20.40;99.90;;;;;;5054203;28;20458;-80
2021/07/21 01:57:12;;;;;;;4.70;3.87;;;20.30;99.90;;;;;;5053726;28;20451;-82
2021/07/21 01:59:44;;;;;;;5.73;4.97;;;20.30;99.90;;;;;;5054189;28;20475;-78
2021/07/21 02:02:14;;;;;;;6.53;4.03;;;20.30;99.90;;;;;;5053948;28;20443;-77
2021/07/21 02:04:44;;;;;;;5.10;4.57;;;20.30;99.90;;;;;;5035039;28;20505;-78
2021/07/21 02:07:14;;;;;;;5.17;4.30;;;20.20;99.90;;;;;;5052332;28;20479;-77
2021/07/21 02:09:45;;;;;;;5.50;4.30;;;20.20;99.90;;;;;;5053236;28;20986;-79
2021/07/21 02:12:14;;;;;;;7.13;4.33;;;20.20;99.90;;;;;;5053579;28;20556;-78
2021/07/21 02:14:47;;;;;;;6.27;4.40;;;20.20;99.90;;;;;;5053833;28;20459;-77
2021/07/21 02:17:16;;;;;;;6.30;4.60;;;20.10;99.90;;;;;;5053500;28;20451;-79
2021/07/21 02:19:46;;;;;;;4.57;4.13;;;20.20;99.90;;;;;;5053209;28;20509;-79
2021/07/21 02:22:18;;;;;;;4.83;4.03;;;20.20;99.90;;;;;;5056050;28;20573;-78
2021/07/21 02:24:47;;;;;;;5.70;4.70;;;20.20;99.90;;;;;;5052641;28;20953;-77
2021/07/21 02:27:16;;;;;;;6.43;4.63;;;20.20;99.90;;;;;;5036576;28;20497;-79
2021/07/21 02:29:45;;;;;;;6.33;4.97;;;20.20;99.90;;;;;;5053256;28;20544;-80
2021/07/21 02:32:19;;;;;;;6.90;4.77;;;20.20;99.90;;;;;;5052329;28;20447;-78
2021/07/21 02:34:47;;;;;;;6.53;4.77;;;20.10;99.90;;;;;;5035394;28;20497;-81
2021/07/21 02:37:18;;;;;;;5.20;4.70;;;20.10;99.90;;;;;;5051900;28;20935;-79
2021/07/21 02:39:49;;;;;;;5.53;4.13;;;20.10;99.90;;;;;;5031832;28;20510;-78
2021/07/21 02:42:17;;;;;;;5.53;4.53;;;20.10;99.90;;;;;;5045896;28;20447;-79
2021/07/21 02:44:49;;;;;;;6.97;4.60;;;20.10;99.90;;;;;;5035471;28;20510;-80
2021/07/21 02:47:19;;;;;;;8.20;5.43;;;20.00;99.90;;;;;;5051710;28;20589;-82
2021/07/21 02:49:48;;;;;;;6.10;5.23;;;20.10;99.90;;;;;;5035313;28;20468;-79
2021/07/21 02:52:21;;;;;;;6.70;5.80;;;20.10;99.90;;;;;;5053914;28;20501;-81
2021/07/21 02:54:58;;;;;;;6.07;5.00;;;20.00;99.90;;;;;;5035404;28;20440;-81
2021/07/21 02:57:33;;;;;;;6.40;5.07;;;20.00;99.90;;;;;;5034607;28;20452;-80
2021/07/21 03:00:10;;;;;;;5.37;4.70;;;20.00;99.90;;;;;;5033549;28;20461;-79
2021/07/21 03:02:39;;;;;;;8.93;4.77;;;20.00;99.90;;;;;;5038821;28;20452;-80
2021/07/21 03:05:10;;;;;;;5.90;5.03;;;20.00;99.90;;;;;;5041822;28;20444;-82
2021/07/21 03:07:40;;;;;;;7.83;5.27;;;19.90;99.90;;;;;;5052469;28;20449;-79
2021/07/21 03:10:12;;;;;;;10.03;5.67;;;19.90;99.90;;;;;;5038941;28;20881;-80
2021/07/21 03:12:43;;;;;;;7.00;5.07;;;19.80;99.90;;;;;;5033364;28;20444;-80
2021/07/21 03:15:15;;;;;;;9.63;4.80;;;19.80;99.90;;;;;;5043197;28;20447;-79
2021/07/21 03:17:47;;;;;;;6.43;4.90;;;19.80;99.90;;;;;;5035892;28;20452;-78
2021/07/21 03:20:17;;;;;;;5.93;5.30;;;19.80;99.90;;;;;;5054046;28;20494;-78
2021/07/21 03:22:47;;;;;;;7.70;5.63;;;19.80;99.90;;;;;;5054218;28;20458;-79
2021/07/21 03:25:16;;;;;;;9.60;6.47;;;19.70;99.90;;;;;;5053692;28;20440;-78
2021/07/21 03:27:45;;;;;;;6.87;5.50;;;19.80;99.90;;;;;;5053907;28;20489;-77
2021/07/21 03:30:14;;;;;;;6.80;5.53;;;19.70;99.90;;;;;;5053763;28;20479;-80
2021/07/21 03:32:44;;;;;;;7.30;5.87;;;19.70;99.90;;;;;;5052689;28;20440;-81
2021/07/21 03:35:13;;;;;;;8.90;5.60;;;19.70;99.90;;;;;;5051936;28;20439;-81
2021/07/21 03:37:44;;;;;;;24.63;13.00;;;19.70;99.90;;;;;;5035691;28;20440;-79
2021/07/21 03:40:13;;;;;;;8.67;5.70;;;19.60;99.90;;;;;;5052206;28;21029;-79
2021/07/21 03:42:42;;;;;;;15.83;9.93;;;19.60;99.90;;;;;;5052345;28;20435;-79
2021/07/21 03:45:13;;;;;;;19.57;10.30;;;19.60;99.90;;;;;;5053643;28;20444;-79
2021/07/21 03:47:43;;;;;;;16.03;9.20;;;19.60;99.90;;;;;;5052406;28;20502;-79
2021/07/21 03:50:12;;;;;;;14.43;7.23;;;19.50;99.90;;;;;;5053649;28;20509;-79
2021/07/21 03:52:42;;;;;;;5.80;5.30;;;19.50;99.90;;;;;;5053649;28;20939;-78
2021/07/21 03:55:13;;;;;;;8.20;6.97;;;19.50;99.90;;;;;;5051900;28;20955;-79
2021/07/21 03:57:43;;;;;;;8.97;6.20;;;19.50;99.90;;;;;;5052024;28;20502;-79
2021/07/21 04:00:14;;;;;;;9.10;5.33;;;19.50;99.90;;;;;;5053157;28;20459;-79
2021/07/21 04:02:48;;;;;;;7.00;5.10;;;19.40;99.90;;;;;;5047246;28;20505;-82
2021/07/21 04:05:18;;;;;;;7.13;5.00;;;19.50;99.90;;;;;;5037788;28;20475;-79
2021/07/21 04:07:47;;;;;;;6.80;5.70;;;19.40;99.90;;;;;;5052963;28;20881;-79
2021/07/21 04:10:16;;;;;;;9.83;5.70;;;19.40;99.90;;;;;;5052820;28;20464;-79
2021/07/21 04:12:48;;;;;;;7.97;5.30;;;19.40;99.90;;;;;;5054327;28;20435;-80
2021/07/21 04:15:21;;;;;;;7.20;5.80;;;19.40;99.90;;;;;;5048767;28;20505;-80
2021/07/21 04:17:53;;;;;;;8.70;5.57;;;19.30;99.90;;;;;;5049685;28;20531;-80
2021/07/21 04:20:22;;;;;;;10.33;6.23;;;19.40;99.90;;;;;;5050062;28;20475;-79
2021/07/21 04:22:52;;;;;;;7.00;5.40;;;19.40;99.90;;;;;;5053334;28;20446;-80
2021/07/21 04:25:21;;;;;;;9.37;6.10;;;19.40;99.90;;;;;;5052638;28;20838;-78
2021/07/21 04:27:50;;;;;;;8.93;5.77;;;19.40;99.90;;;;;;5033626;28;20830;-78
2021/07/21 04:30:19;;;;;;;8.00;5.77;;;19.40;99.90;;;;;;5047851;28;20478;-78
2021/07/21 04:32:47;;;;;;;7.90;5.80;;;19.30;99.90;;;;;;5047257;28;20985;-79
2021/07/21 04:35:17;;;;;;;7.33;6.33;;;19.40;99.90;;;;;;5051611;28;20482;-79
2021/07/21 04:37:45;;;;;;;6.07;5.50;;;19.40;99.90;;;;;;5051939;28;20439;-80
2021/07/21 04:40:15;;;;;;;8.10;5.73;;;19.40;99.90;;;;;;5051463;28;20466;-77
2021/07/21 04:42:45;;;;;;;11.20;5.90;;;19.40;99.90;;;;;;5043188;28;20435;-79
2021/07/21 04:45:13;;;;;;;11.70;7.80;;;19.40;99.90;;;;;;5068088;28;20501;-79
2021/07/21 04:47:42;;;;;;;9.67;6.20;;;19.30;99.90;;;;;;5036793;28;20481;-77
2021/07/21 04:50:15;;;;;;;7.70;5.33;;;19.30;99.90;;;;;;5051723;28;20455;-78
2021/07/21 04:52:45;;;;;;;8.63;5.83;;;19.30;99.90;;;;;;5050397;28;20443;-80
2021/07/21 04:55:14;;;;;;;6.80;6.07;;;19.30;99.90;;;;;;5033146;28;20448;-79
2021/07/21 04:57:45;;;;;;;10.13;5.87;;;19.40;99.90;;;;;;5050980;28;20444;-78
2021/07/21 05:00:14;;;;;;;7.17;5.63;;;19.40;99.90;;;;;;5051779;28;20551;-80
2021/07/21 05:02:42;;;;;;;6.67;5.67;;;19.40;99.90;;;;;;5055577;28;20439;-82
2021/07/21 05:05:12;;;;;;;6.87;5.93;;;19.30;99.90;;;;;;5052036;28;20545;-81
2021/07/21 05:07:40;;;;;;;6.77;5.40;;;19.30;99.90;;;;;;5052934;28;20463;-81
2021/07/21 05:10:10;;;;;;;7.47;5.73;;;19.20;99.90;;;;;;5041901;28;20521;-81
2021/07/21 05:12:43;;;;;;;7.27;5.30;;;19.20;99.90;;;;;;5034810;28;20505;-81
2021/07/21 05:15:12;;;;;;;7.37;5.33;;;19.20;99.90;;;;;;5051346;28;20444;-81
2021/07/21 05:17:41;;;;;;;6.40;5.17;;;19.20;99.90;;;;;;5022314;28;20447;-80
2021/07/21 05:20:10;;;;;;;6.53;5.33;;;19.30;99.90;;;;;;5033455;28;20463;-81
2021/07/21 05:22:42;;;;;;;6.73;5.03;;;19.30;99.90;;;;;;5053661;28;20518;-81
2021/07/21 05:25:12;;;;;;;8.17;5.47;;;19.30;99.90;;;;;;5054952;28;20447;-80
2021/07/21 05:27:40;;;;;;;7.17;5.67;;;19.30;99.90;;;;;;5053478;28;20481;-81
2021/07/21 05:30:10;;;;;;;8.20;6.37;;;19.40;99.90;;;;;;5038095;28;20497;-81
2021/07/21 05:32:38;;;;;;;8.40;6.07;;;19.40;99.90;;;;;;5050720;28;20454;-79
2021/07/21 05:35:07;;;;;;;7.83;5.57;;;19.40;99.90;;;;;;5052686;28;20508;-79
2021/07/21 05:37:36;;;;;;;10.13;7.37;;;19.60;99.90;;;;;;5051405;28;20432;-79
2021/07/21 05:40:06;;;;;;;7.00;5.37;;;19.70;99.90;;;;;;5051407;28;21045;-82
2021/07/21 05:42:36;;;;;;;9.27;6.65;;;19.60;99.90;;;;;;5042570;28;20447;-80
2021/07/21 05:45:05;;;;;;;9.23;5.70;;;19.70;99.90;;;;;;5051268;28;20546;-77
2021/07/21 05:47:34;;;;;;;9.30;6.40;;;19.80;99.90;;;;;;5046028;28;20529;-78
2021/07/21 05:50:02;;;;;;;8.70;6.50;;;19.90;99.90;;;;;;5044077;28;20473;-78
2021/07/21 05:52:30;;;;;;;8.70;6.87;;;19.90;99.90;;;;;;5032347;28;20511;-79
2021/07/21 05:54:58;;;;;;;7.20;5.00;;;19.90;99.90;;;;;;5051558;28;20863;-78
2021/07/21 05:57:26;;;;;;;9.43;7.10;;;20.00;99.90;;;;;;5051406;28;20436;-78
2021/07/21 05:59:55;;;;;;;7.77;6.37;;;20.00;99.90;;;;;;5051482;28;20467;-77
2021/07/21 06:02:24;;;;;;;9.30;6.70;;;20.10;99.90;;;;;;5036766;28;20459;-78
2021/07/21 06:04:53;;;;;;;10.90;5.13;;;20.10;99.90;;;;;;5051727;28;20447;-79
2021/07/21 06:07:21;;;;;;;7.67;5.23;;;20.10;99.90;;;;;;5050593;28;20471;-79
2021/07/21 06:09:49;;;;;;;8.03;5.43;;;20.20;99.90;;;;;;5050233;28;20550;-78
2021/07/21 06:12:17;;;;;;;9.95;6.20;;;20.20;99.90;;;;;;5049679;28;20497;-81
2021/07/21 06:14:46;;;;;;;10.53;5.70;;;20.20;99.90;;;;;;5038009;28;20197;-78
2021/07/21 06:17:16;;;;;;;9.50;6.83;;;20.30;99.90;;;;;;5037140;28;20448;-80
2021/07/21 06:19:45;;;;;;;6.20;5.60;;;20.30;99.90;;;;;;5023245;28;20529;-78
2021/07/21 06:22:18;;;;;;;7.07;5.80;;;20.30;99.90;;;;;;5051437;28;20439;-78
2021/07/21 06:24:46;;;;;;;10.20;6.90;;;20.40;99.90;;;;;;5051759;28;20431;-77
2021/07/21 06:27:14;;;;;;;8.67;5.53;;;20.40;99.90;;;;;;5049755;28;20451;-78
2021/07/21 06:29:43;;;;;;;6.90;5.03;;;20.50;99.90;;;;;;5039842;28;21013;-79
2021/07/21 06:32:11;;;;;;;6.87;5.50;;;20.50;99.90;;;;;;5055320;28;20497;-77
2021/07/21 06:34:41;;;;;;;7.60;6.10;;;20.60;99.90;;;;;;5055251;28;20530;-77
2021/07/21 06:37:12;;;;;;;7.27;5.50;;;20.60;99.90;;;;;;5054268;28;20465;-81
2021/07/21 06:39:40;;;;;;;9.47;6.27;;;20.70;99.90;;;;;;5053927;28;21080;-81
2021/07/21 06:42:08;;;;;;;6.27;5.67;;;20.70;99.90;;;;;;5055165;28;20455;-77
2021/07/21 06:44:37;;;;;;;8.17;6.63;;;20.80;99.90;;;;;;5054789;28;20526;-79
2021/07/21 06:47:05;;;;;;;7.10;6.00;;;20.80;99.90;;;;;;5055136;28;20489;-78
2021/07/21 06:49:33;;;;;;;7.73;5.43;;;20.90;99.90;;;;;;5054543;28;20965;-81
2021/07/21 06:52:03;;;;;;;6.80;5.03;;;21.00;99.90;;;;;;5037211;28;20452;-78
2021/07/21 06:54:32;;;;;;;8.27;5.27;;;21.10;99.90;;;;;;5054940;28;20432;-78
2021/07/21 06:57:00;;;;;;;7.60;6.33;;;21.30;99.90;;;;;;5051487;28;20792;-80
2021/07/21 06:59:28;;;;;;;9.80;6.70;;;21.40;99.90;;;;;;5053995;28;20502;-79
2021/07/21 07:01:56;;;;;;;7.77;5.70;;;21.60;99.90;;;;;;5034449;28;20516;-79
2021/07/21 07:04:25;;;;;;;8.83;6.40;;;21.80;99.90;;;;;;5053791;28;20477;-79
2021/07/21 07:06:53;;;;;;;7.20;6.50;;;22.00;99.90;;;;;;5051290;28;20937;-79
2021/07/21 07:09:22;;;;;;;9.80;5.60;;;22.10;99.90;;;;;;5035001;28;20530;-79
2021/07/21 07:11:51;;;;;;;5.73;4.97;;;22.30;99.90;;;;;;5052192;28;20509;-79
2021/07/21 07:14:19;;;;;;;6.60;5.70;;;22.40;99.90;;;;;;5035095;28;20499;-79
2021/07/21 07:16:48;;;;;;;8.37;5.50;;;22.60;99.90;;;;;;5051135;28;20460;-79
2021/07/21 07:19:16;;;;;;;8.27;6.73;;;22.60;99.90;;;;;;5041175;28;20449;-79
2021/07/21 07:21:45;;;;;;;7.20;5.40;;;22.70;99.90;;;;;;5039669;28;20451;-79
2021/07/21 07:24:13;;;;;;;9.60;6.20;;;22.70;99.90;;;;;;5053021;28;20673;-78
2021/07/21 07:26:43;;;;;;;8.10;5.80;;;22.80;99.90;;;;;;5052584;28;20796;-77
2021/07/21 07:29:12;;;;;;;8.40;6.10;;;22.80;99.90;;;;;;5034482;28;20486;-78
2021/07/21 07:31:41;;;;;;;11.40;6.03;;;22.80;99.90;;;;;;5039491;28;20817;-78
2021/07/21 07:34:11;;;;;;;6.13;5.53;;;22.90;99.90;;;;;;5034792;28;20469;-78
2021/07/21 07:36:39;;;;;;;9.37;6.40;;;22.90;99.90;;;;;;5052058;28;20509;-78
2021/07/21 07:39:08;;;;;;;6.93;5.43;;;22.90;99.90;;;;;;5034341;28;20455;-78
2021/07/21 07:41:36;;;;;;;9.57;5.87;;;22.90;99.90;;;;;;5040652;28;20478;-78
2021/07/21 07:44:07;;;;;;;6.20;5.50;;;22.90;99.90;;;;;;5047492;28;20958;-77
2021/07/21 07:46:37;;;;;;;6.57;5.60;;;22.90;99.90;;;;;;5052136;28;20460;-78
2021/07/21 07:49:07;;;;;;;5.90;5.30;;;23.00;99.90;;;;;;5051661;28;20470;-79
2021/07/21 07:51:35;;;;;;;7.77;5.97;;;23.00;99.90;;;;;;5041928;28;20515;-80
2021/07/21 07:54:05;;;;;;;7.10;5.03;;;23.00;99.90;;;;;;5034946;28;20512;-80
2021/07/21 07:56:34;;;;;;;7.37;4.73;;;23.00;99.90;;;;;;5052526;28;20451;-79
2021/07/21 07:59:04;;;;;;;6.40;5.67;;;23.00;99.90;;;;;;5043281;28;20447;-78
2021/07/21 08:01:34;;;;;;;6.57;5.80;;;23.10;99.90;;;;;;5049219;28;20505;-78
2021/07/21 08:04:03;;;;;;;6.40;4.93;;;23.20;99.90;;;;;;5051274;28;20470;-78
2021/07/21 08:06:34;;;;;;;8.77;5.73;;;23.10;99.90;;;;;;5043580;28;20463;-79
2021/07/21 08:09:02;;;;;;;7.60;5.63;;;23.10;99.90;;;;;;5051508;28;20471;-78
2021/07/21 08:11:30;;;;;;;6.47;5.40;;;23.20;99.90;;;;;;5031805;28;20478;-78
2021/07/21 08:13:59;;;;;;;6.10;5.50;;;23.20;99.90;;;;;;5050561;28;20939;-79
2021/07/21 08:16:27;;;;;;;6.77;5.20;;;23.20;99.90;;;;;;5052042;28;20542;-78
2021/07/21 08:18:56;;;;;;;5.93;5.37;;;23.20;99.90;;;;;;5035629;28;20920;-81
2021/07/21 08:21:25;;;;;;;7.07;5.83;;;23.20;99.90;;;;;;5054472;28;20517;-80
2021/07/21 08:23:53;;;;;;;7.05;5.80;;;23.30;99.90;;;;;;5048396;28;20450;-81
2021/07/21 08:26:21;;;;;;;7.50;5.30;;;23.40;99.90;;;;;;5050861;28;20215;-80
2021/07/21 08:28:49;;;;;;;6.50;5.50;;;23.40;99.90;;;;;;5057059;28;20490;-81
2021/07/21 08:31:17;;;;;;;6.80;4.60;;;23.40;99.90;;;;;;5051294;28;20494;-81
2021/07/21 08:33:45;;;;;;;8.13;6.17;;;23.50;99.90;;;;;;5036688;28;20455;-81
2021/07/21 08:36:15;;;;;;;5.93;5.33;;;23.50;99.90;;;;;;5038185;28;20459;-83
2021/07/21 08:38:43;;;;;;;9.40;5.40;;;23.50;99.90;;;;;;5055191;28;20443;-82
2021/07/21 08:41:13;;;;;;;6.70;5.40;;;23.60;99.90;;;;;;5043622;28;20460;-81
2021/07/21 08:43:41;;;;;;;12.93;6.13;;;23.60;99.90;;;;;;5052851;28;20450;-82
2021/07/21 08:46:10;;;;;;;5.60;4.63;;;23.60;99.90;;;;;;5031659;28;20469;-81
2021/07/21 08:48:38;;;;;;;5.43;4.90;;;23.70;99.90;;;;;;5042939;28;20712;-81
2021/07/21 08:51:10;;;;;;;8.57;5.47;;;23.70;99.90;;;;;;5047741;28;20480;-85
2021/07/21 08:53:39;;;;;;;6.10;5.50;;;23.70;99.90;;;;;;5051317;28;20955;-81
2021/07/21 08:56:08;;;;;;;6.40;5.50;;;23.80;99.90;;;;;;5052950;28;20505;-82
2021/07/21 08:58:37;;;;;;;7.47;6.10;;;23.80;99.90;;;;;;5053501;28;20460;-84
2021/07/21 09:01:05;;;;;;;7.90;5.53;;;23.80;99.90;;;;;;5037097;28;20471;-84
2021/07/21 09:03:34;;;;;;;9.97;7.33;;;23.90;99.90;;;;;;5052043;28;20475;-81
2021/07/21 09:06:02;;;;;;;7.23;6.43;;;23.90;99.90;;;;;;5041705;28;20456;-80
2021/07/21 09:08:34;;;;;;;8.67;6.33;;;23.90;99.90;;;;;;5050809;28;20885;-81
2021/07/21 09:11:04;;;;;;;6.80;5.50;;;24.00;99.90;;;;;;5051165;28;21021;-81
2021/07/21 09:13:34;;;;;;;6.67;4.87;;;24.00;99.90;;;;;;5051054;28;20447;-81
2021/07/21 09:16:04;;;;;;;10.13;5.43;;;24.10;99.90;;;;;;5051441;28;20439;-82
2021/07/21 09:18:47;;;;;;;8.80;6.03;;;24.20;99.90;;;;;;5051792;28;20514;-81
2021/07/21 09:21:16;;;;;;;7.17;6.47;;;24.20;99.90;;;;;;5035363;28;20476;-82
2021/07/21 09:23:47;;;;;;;8.00;5.97;;;24.20;99.90;;;;;;5051017;28;20455;-82
2021/07/21 09:26:20;;;;;;;7.03;5.40;;;24.30;99.90;;;;;;5051413;28;20485;-82
2021/07/21 09:28:48;;;;;;;5.87;5.20;;;24.30;99.90;;;;;;5051820;28;20799;-81
2021/07/21 09:31:29;;;;;;;8.00;5.60;;;24.30;99.90;;;;;;5039847;28;21353;-82
2021/07/21 09:33:57;;;;;;;8.43;5.53;;;24.30;99.90;;;;;;5033871;28;20642;-81
2021/07/21 09:36:26;;;;;;;7.90;6.90;;;24.30;99.90;;;;;;5050974;28;20854;-82
2021/07/21 09:39:01;;;;;;;8.07;6.10;;;24.30;99.90;;;;;;5030784;28;20465;-82
2021/07/21 09:41:30;;;;;;;8.97;6.60;;;24.40;99.90;;;;;;5018300;28;20483;-82
2021/07/21 09:44:03;;;;;;;6.50;5.70;;;24.40;99.90;;;;;;5021810;28;21035;-83
2021/07/21 09:46:33;;;;;;;6.50;5.70;;;24.40;99.90;;;;;;5033893;28;20531;-82
2021/07/21 09:49:02;;;;;;;6.77;6.10;;;24.50;99.90;;;;;;5029361;28;20981;-82
2021/07/21 09:51:34;;;;;;;7.57;5.70;;;24.50;99.90;;;;;;5050952;28;21398;-82
2021/07/21 09:54:15;;;;;;;6.87;6.27;;;24.50;99.90;;;;;;5029746;28;20991;-81
2021/07/21 09:56:46;;;;;;;7.33;5.50;;;24.60;99.90;;;;;;5032936;28;20513;-82
2021/07/21 09:59:25;;;;;;;8.53;6.10;;;24.60;99.90;;;;;;5026939;28;20455;-80
2021/07/21 10:01:54;;;;;;;6.07;5.37;;;24.60;99.90;;;;;;5036957;28;20859;-83
2021/07/21 10:04:34;;;;;;;6.33;5.70;;;24.70;99.90;;;;;;5055280;28;20470;-82
2021/07/21 10:07:13;;;;;;;7.27;6.17;;;24.70;99.90;;;;;;5057804;28;20435;-82
2021/07/21 10:09:42;;;;;;;7.70;6.60;;;24.70;99.90;;;;;;5049579;28;20471;-82
2021/07/21 10:12:16;;;;;;;6.27;5.67;;;24.70;99.90;;;;;;5058030;28;20459;-82
2021/07/21 10:14:57;;;;;;;6.43;5.50;;;24.80;99.90;;;;;;5040010;28;20455;-83
2021/07/21 10:17:25;;;;;;;6.30;5.40;;;24.80;99.90;;;;;;5057681;28;20471;-84
2021/07/21 10:19:54;;;;;;;9.60;5.10;;;24.80;99.90;;;;;;5057639;28;20871;-83
2021/07/21 10:22:22;;;;;;;7.87;6.77;;;24.80;99.90;;;;;;5050494;28;21025;-80
2021/07/21 10:24:51;;;;;;;6.20;5.30;;;24.90;99.90;;;;;;5038713;28;20452;-80
2021/07/21 10:27:21;;;;;;;9.37;6.40;;;24.90;99.90;;;;;;5052295;28;20449;-80
2021/07/21 10:29:53;;;;;;;7.77;5.93;;;24.90;99.90;;;;;;5050557;28;20479;-80
2021/07/21 10:32:21;;;;;;;6.63;5.43;;;24.90;99.90;;;;;;5055004;28;20462;-82
2021/07/21 10:34:50;;;;;;;6.70;5.90;;;24.90;99.90;;;;;;5056276;28;20500;-80
2021/07/21 10:37:18;;;;;;;7.43;6.17;;;25.00;99.90;;;;;;5053363;28;20455;-76
2021/07/21 10:39:52;;;;;;;9.10;6.80;;;25.00;99.90;;;;;;5035425;28;20491;-81
2021/07/21 10:42:23;;;;;;;7.03;5.23;;;25.10;99.90;;;;;;5054276;28;20465;-82
2021/07/21 10:44:58;;;;;;;6.77;5.93;;;25.10;99.90;;;;;;5053326;28;20559;-80
2021/07/21 10:47:31;;;;;;;7.30;5.90;;;25.10;99.90;;;;;;5056009;28;20439;-80
2021/07/21 10:50:08;;;;;;;7.70;5.70;;;25.10;99.90;;;;;;5036235;28;20463;-79
2021/07/21 10:52:48;;;;;;;7.90;6.60;;;25.10;99.90;;;;;;5054770;28;20439;-81
2021/07/21 10:55:24;;;;;;;6.70;5.80;;;25.10;99.90;;;;;;5044253;28;20477;-82
2021/07/21 11:00:57;;;;;;;6.60;5.60;;;25.20;99.90;;;;;;5057072;28;21063;-82
2021/07/21 11:03:28;;;;;;;6.27;5.63;;;25.20;99.90;;;;;;5054725;28;20505;-81
2021/07/21 11:06:01;;;;;;;6.83;5.63;;;25.20;99.90;;;;;;5055864;28;20535;-81
2021/07/21 11:08:30;;;;;;;10.60;6.30;;;25.20;99.90;;;;;;5037727;28;20450;-82
2021/07/21 11:11:10;;;;;;;7.83;6.00;;;25.30;99.90;;;;;;5056218;28;20475;-81
2021/07/21 11:13:42;;;;;;;7.90;7.10;;;25.30;99.90;;;;;;5056344;28;20451;-81
2021/07/21 11:16:40;;;;;;;7.37;6.03;;;25.30;99.90;;;;;;5055214;28;20458;-82
2021/07/21 11:19:33;;;;;;;6.53;5.60;;;25.30;99.90;;;;;;5037381;28;20444;-82
2021/07/21 11:22:05;;;;;;;7.00;6.00;;;25.40;99.90;;;;;;5052651;28;20447;-83
2021/07/21 11:25:02;;;;;;;8.63;6.80;;;25.30;99.90;;;;;;5056085;28;20456;-82
2021/07/21 11:27:49;;;;;;;10.03;7.17;;;25.40;99.90;;;;;;5055970;28;20436;-81
2021/07/21 11:31:02;;;;;;;6.87;6.17;;;25.40;99.90;;;;;;5055078;28;20471;-83
2021/07/21 11:33:55;;;;;;;9.83;7.50;;;25.50;99.90;;;;;;5056045;28;20534;-82
2021/07/21 11:36:56;;;;;;;6.73;6.13;;;25.50;99.90;;;;;;5042376;28;20453;-81
2021/07/21 11:39:46;;;;;;;7.83;6.00;;;25.50;99.90;;;;;;5039724;28;20464;-82
2021/07/21 11:42:33;;;;;;;8.83;7.43;;;25.50;99.90;;;;;;5034309;28;20864;-81
2021/07/21 11:45:19;;;;;;;11.97;7.53;;;25.50;99.90;;;;;;5052910;28;20443;-81
2021/07/21 11:48:01;;;;;;;8.10;5.83;;;25.40;99.90;;;;;;5052706;28;20455;-82
2021/07/21 11:50:32;;;;;;;7.20;6.10;;;25.50;99.90;;;;;;5027756;28;21010;-82
2021/07/21 11:53:02;;;;;;;7.87;6.50;;;25.50;99.90;;;;;;5038531;28;20514;-81
2021/07/21 11:55:33;;;;;;;8.27;6.70;;;25.50;99.90;;;;;;5051979;28;20817;-82
2021/07/21 11:58:11;;;;;;;8.20;6.70;;;25.50;99.90;;;;;;5053277;28;20451;-80
2021/07/21 12:00:40;;;;;;;10.07;7.23;;;25.50;99.90;;;;;;5053325;28;20837;-81
2021/07/21 12:03:09;;;;;;;8.30;7.30;;;25.60;99.90;;;;;;5052532;28;20448;-80
2021/07/21 12:05:38;;;;;;;9.57;8.10;;;25.60;99.90;;;;;;5050106;28;20447;-81
2021/07/21 12:08:22;;;;;;;7.40;6.70;;;25.60;99.90;;;;;;5050041;28;20193;-81
2021/07/21 12:10:52;;;;;;;8.60;7.20;;;25.70;99.90;;;;;;5035534;28;20983;-81
2021/07/21 12:13:20;;;;;;;8.90;6.63;;;25.70;99.90;;;;;;5034227;28;20456;-81
2021/07/21 12:15:59;;;;;;;7.70;6.77;;;25.70;99.90;;;;;;5052553;28;20451;-80
2021/07/21 12:18:29;;;;;;;7.23;5.77;;;25.70;99.90;;;;;;5049950;28;20452;-80
2021/07/21 12:21:06;;;;;;;9.00;7.60;;;25.80;99.90;;;;;;5053550;28;20526;-80
2021/07/21 12:23:34;;;;;;;8.30;7.03;;;25.80;99.90;;;;;;5061946;28;20489;-81
2021/07/21 12:26:06;;;;;;;8.10;7.27;;;25.80;99.90;;;;;;5054190;28;20447;-81
2021/07/21 12:28:34;;;;;;;8.47;6.50;;;25.80;99.90;;;;;;5052960;28;20458;-81
2021/07/21 12:31:02;;;;;;;7.10;6.37;;;25.80;99.90;;;;;;5051135;28;20570;-80
2021/07/21 12:33:32;;;;;;;8.63;7.80;;;25.80;99.90;;;;;;5030621;28;20451;-80
2021/07/21 12:36:07;;;;;;;11.33;7.30;;;25.90;99.90;;;;;;5050945;28;20711;-81
2021/07/21 12:38:39;;;;;;;7.90;7.13;;;25.90;99.90;;;;;;5050704;28;20451;-82
2021/07/21 12:41:10;;;;;;;7.77;6.30;;;25.80;99.90;;;;;;5044103;28;20464;-82
2021/07/21 12:43:38;;;;;;;10.30;7.13;;;25.90;99.90;;;;;;5050740;28;21049;-81
2021/07/21 12:46:16;;;;;;;7.40;6.60;;;25.90;99.90;;;;;;5050077;28;20990;-81
2021/07/21 12:48:46;;;;;;;10.97;7.17;;;25.90;99.90;;;;;;5034700;28;20443;-81
2021/07/21 12:51:14;;;;;;;9.20;6.40;;;25.90;99.90;;;;;;5050942;28;20476;-82
2021/07/21 12:53:43;;;;;;;6.60;5.93;;;26.00;99.90;;;;;;5053045;28;20436;-80
2021/07/21 12:56:14;;;;;;;7.83;5.90;;;26.00;99.90;;;;;;5048316;28;20507;-80
2021/07/21 12:58:42;;;;;;;6.53;5.83;;;26.00;99.90;;;;;;5043090;28;21173;-80
2021/07/21 13:01:10;;;;;;;7.27;6.60;;;26.00;99.90;;;;;;5048318;28;20464;-79
2021/07/21 13:03:48;;;;;;;7.73;6.97;;;26.00;99.90;;;;;;5050235;28;20443;-80
2021/07/21 13:06:23;;;;;;;9.90;7.17;;;26.00;99.90;;;;;;5027865;28;20459;-80
2021/07/21 13:08:52;;;;;;;7.93;6.43;;;26.00;99.90;;;;;;5032588;28;20446;-81